createdAt,value
2019-01-12T00:00:07.390Z,98200.05
2019-01-12T00:02:34.795Z,98199.27
2019-01-12T00:05:02.202Z,98198.87
2019-01-12T00:07:29.600Z,98198.98
2019-01-12T00:09:57.015Z,98194.68
2019-01-12T00:12:24.426Z,98203.34
2019-01-12T00:14:51.852Z,98198.08
2019-01-12T00:17:19.252Z,98204.55
2019-01-12T00:19:46.918Z,98198.50
2019-01-12T00:22:14.316Z,98196.02
2019-01-12T00:24:41.731Z,98204.77
2019-01-12T00:27:09.143Z,98204.38
2019-01-12T00:29:36.559Z,98207.80
2019-01-12T00:32:03.946Z,98206.37
2019-01-12T00:34:31.378Z,98208.50
2019-01-12T00:36:58.979Z,98205.55
2019-01-12T00:39:26.426Z,98202.52
2019-01-12T00:41:53.867Z,98206.92
2019-01-12T00:44:21.268Z,98202.03
2019-01-12T00:46:48.686Z,98205.80
2019-01-12T00:49:16.663Z,98198.86
2019-01-12T00:51:44.106Z,98199.00
2019-01-12T00:54:11.524Z,98196.89
2019-01-12T00:56:38.937Z,98201.17
2019-01-12T00:59:06.413Z,98202.83
2019-01-12T01:01:33.854Z,98200.65
2019-01-12T01:04:01.285Z,98198.87
2019-01-12T01:06:28.682Z,98201.04
2019-01-12T01:08:56.098Z,98199.38
2019-01-12T01:11:23.512Z,98200.20
2019-01-12T01:13:50.911Z,98203.98
2019-01-12T01:16:18.371Z,98201.78
2019-01-12T01:18:45.764Z,98190.95
2019-01-12T01:21:13.190Z,98197.87
2019-01-12T01:23:40.636Z,98199.66
2019-01-12T01:26:08.042Z,98200.06
2019-01-12T01:28:35.521Z,98188.89
2019-01-12T01:31:03.005Z,98197.20
2019-01-12T01:33:30.425Z,98198.19
2019-01-12T01:35:57.818Z,98212.23
2019-01-12T01:38:25.223Z,98205.61
2019-01-12T01:40:52.673Z,98208.23
2019-01-12T01:43:20.080Z,98204.33
2019-01-12T01:45:48.266Z,98207.73
2019-01-12T01:48:15.714Z,98203.84
2019-01-12T01:50:43.127Z,98200.78
2019-01-12T01:53:10.540Z,98208.44
2019-01-12T01:55:37.957Z,98205.47
2019-01-12T01:58:05.461Z,98208.08
2019-01-12T02:00:32.872Z,98206.85
2019-01-12T02:03:00.353Z,98198.69
2019-01-12T02:05:27.782Z,98201.59
2019-01-12T02:07:55.168Z,98202.45
2019-01-12T02:10:22.615Z,98197.83
2019-01-12T02:12:50.015Z,98202.16
2019-01-12T02:15:17.423Z,98197.92
2019-01-12T02:17:44.826Z,98203.95
2019-01-12T02:20:12.314Z,98210.56
2019-01-12T02:22:39.730Z,98208.50
2019-01-12T02:25:07.187Z,98206.69
2019-01-12T02:27:34.600Z,98214.35
2019-01-12T02:30:02.008Z,98203.09
2019-01-12T02:32:29.423Z,98206.64
2019-01-12T02:34:56.815Z,98196.73
2019-01-12T02:37:24.228Z,98203.55
2019-01-12T02:39:51.658Z,98198.73
2019-01-12T02:42:19.058Z,98204.39
2019-01-12T02:44:46.957Z,98209.12
2019-01-12T02:47:14.373Z,98216.45
2019-01-12T02:49:41.831Z,98209.88
2019-01-12T02:52:09.267Z,98208.63
2019-01-12T02:54:36.701Z,98207.39
2019-01-12T02:57:04.082Z,98200.43
2019-01-12T02:59:31.767Z,98199.22
2019-01-12T03:01:59.191Z,98195.00
2019-01-12T03:04:26.646Z,98191.00
2019-01-12T03:06:54.032Z,98191.39
2019-01-12T03:09:21.501Z,98190.99
2019-01-12T03:11:48.927Z,98193.67
2019-01-12T03:14:16.315Z,98197.57
2019-01-12T03:16:43.727Z,98191.41
2019-01-12T03:19:11.115Z,98190.09
2019-01-12T03:21:38.516Z,98194.47
2019-01-12T03:24:05.926Z,98192.02
2019-01-12T03:26:33.336Z,98194.92
2019-01-12T03:29:01.113Z,98196.23
2019-01-12T03:31:28.538Z,98186.27
2019-01-12T03:33:55.968Z,98186.24
2019-01-12T03:36:23.378Z,98180.72
2019-01-12T03:38:50.788Z,98183.11
2019-01-12T03:41:18.192Z,98178.84
2019-01-12T03:43:45.717Z,98170.19
2019-01-12T03:46:13.171Z,98172.73
2019-01-12T03:48:40.605Z,98167.96
2019-01-12T03:51:08.068Z,98177.38
2019-01-12T03:53:35.473Z,98174.31
2019-01-12T03:56:02.877Z,98170.76
2019-01-12T03:58:30.311Z,98160.00
2019-01-12T04:00:57.744Z,98169.93
2019-01-12T04:03:25.147Z,98160.89
2019-01-12T04:05:52.559Z,98160.32
2019-01-12T04:08:19.974Z,98156.55
2019-01-12T04:10:47.537Z,98155.67
2019-01-12T04:13:14.930Z,98159.08
2019-01-12T04:15:42.480Z,98155.19
2019-01-12T04:18:09.879Z,98150.84
2019-01-12T04:20:37.354Z,98143.43
2019-01-12T04:23:04.768Z,98139.97
2019-01-12T04:25:33.869Z,98136.93
2019-01-12T04:27:59.675Z,98133.07
2019-01-12T04:30:27.085Z,98132.08
2019-01-12T04:32:54.481Z,98134.31
2019-01-12T04:35:21.895Z,98139.20
2019-01-12T04:37:49.291Z,98128.78
2019-01-12T04:40:16.698Z,98136.86
2019-01-12T04:42:44.101Z,98129.53
2019-01-12T04:45:11.494Z,98123.88
2019-01-12T04:47:38.940Z,98131.70
2019-01-12T04:50:06.523Z,98124.02
2019-01-12T04:52:33.946Z,98120.13
2019-01-12T04:55:01.341Z,98126.52
2019-01-12T04:57:28.730Z,98129.02
2019-01-12T04:59:56.384Z,98121.80
2019-01-12T05:02:23.797Z,98130.45
2019-01-12T05:04:51.797Z,98133.49
2019-01-12T05:07:19.196Z,98128.16
2019-01-12T05:09:46.652Z,98130.70
2019-01-12T05:12:14.069Z,98123.09
2019-01-12T05:14:41.503Z,98123.16
2019-01-12T05:17:09.004Z,98124.39
2019-01-12T05:19:36.413Z,98115.26
2019-01-12T05:22:03.997Z,98124.75
2019-01-12T05:24:31.561Z,98122.66
2019-01-12T05:26:58.974Z,98123.30
2019-01-12T05:29:26.444Z,98120.28
2019-01-12T05:31:53.880Z,98132.33
2019-01-12T05:34:21.303Z,98129.24
2019-01-12T05:36:48.716Z,98139.13
2019-01-12T05:39:16.135Z,98135.22
2019-01-12T05:41:44.642Z,98134.45
2019-01-12T05:44:12.034Z,98134.12
2019-01-12T05:46:39.443Z,98130.33
2019-01-12T05:49:06.849Z,98136.83
2019-01-12T05:51:34.261Z,98144.48
2019-01-12T05:54:01.674Z,98147.02
2019-01-12T05:56:29.119Z,98145.36
2019-01-12T05:58:56.584Z,98153.09
2019-01-12T06:03:50.800Z,98149.33
2019-01-12T06:06:18.198Z,98153.61
2019-01-12T06:08:45.621Z,98157.48
2019-01-12T06:11:13.045Z,98162.22
2019-01-12T06:13:40.480Z,98163.89
2019-01-12T06:16:07.920Z,98162.06
2019-01-12T06:18:35.353Z,98162.47
2019-01-12T06:21:02.778Z,98160.35
2019-01-12T06:23:30.212Z,98158.21
2019-01-12T06:26:03.669Z,98165.97
2019-01-12T06:28:25.868Z,98163.36
2019-01-12T06:30:53.280Z,98164.19
2019-01-12T06:33:20.672Z,98160.32
2019-01-12T06:35:48.073Z,98161.50
2019-01-12T06:38:15.492Z,98159.30
2019-01-12T06:40:42.932Z,98162.31
2019-01-12T06:43:10.347Z,98165.30
2019-01-12T06:45:37.772Z,98167.08
2019-01-12T06:48:05.180Z,98167.51
2019-01-12T06:50:32.579Z,98163.13
2019-01-12T06:52:59.981Z,98179.91
2019-01-12T06:55:27.555Z,98170.07
2019-01-12T06:57:54.965Z,98170.90
2019-01-12T07:00:22.363Z,98175.66
2019-01-12T07:02:49.779Z,98175.66
2019-01-12T07:05:17.175Z,98179.89
2019-01-12T07:07:44.579Z,98178.19
2019-01-12T07:10:12.008Z,98177.30
2019-01-12T07:12:39.410Z,98179.89
2019-01-12T07:15:06.880Z,98176.48
2019-01-12T07:17:34.319Z,98179.88
2019-01-12T07:20:01.719Z,98185.89
2019-01-12T07:22:29.145Z,98181.55
2019-01-12T07:24:56.578Z,98181.11
2019-01-12T07:27:23.994Z,98180.13
2019-01-12T07:29:51.386Z,98179.69
2019-01-12T07:32:18.820Z,98183.56
2019-01-12T07:34:46.250Z,98176.23
2019-01-12T07:37:13.664Z,98192.25
2019-01-12T07:39:41.060Z,98182.30
2019-01-12T07:42:08.474Z,98183.94
2019-01-12T07:44:35.915Z,98187.73
2019-01-12T07:47:03.682Z,98188.54
2019-01-12T07:49:31.242Z,98185.42
2019-01-12T07:51:58.651Z,98194.86
2019-01-12T07:54:26.051Z,98190.88
2019-01-12T07:56:53.474Z,98191.25
2019-01-12T07:59:20.947Z,98201.16
2019-01-12T08:01:48.343Z,98202.90
2019-01-12T08:04:15.750Z,98201.53
2019-01-12T08:06:43.983Z,98207.05
2019-01-12T08:09:11.426Z,98201.92
2019-01-12T08:11:39.134Z,98208.53
2019-01-12T08:14:06.525Z,98206.47
2019-01-12T08:16:33.949Z,98206.40
2019-01-12T08:19:01.378Z,98203.72
2019-01-12T08:21:28.770Z,98212.73
2019-01-12T08:23:56.246Z,98213.84
2019-01-12T08:26:23.643Z,98215.14
2019-01-12T08:28:51.061Z,98217.68
2019-01-12T08:31:18.525Z,98228.70
2019-01-12T08:33:45.921Z,98231.30
2019-01-12T08:36:13.886Z,98228.42
2019-01-12T08:38:41.323Z,98226.31
2019-01-12T08:41:08.747Z,98235.16
2019-01-12T08:43:36.164Z,98227.50
2019-01-12T08:46:03.783Z,98225.23
2019-01-12T08:48:31.221Z,98220.88
2019-01-12T08:50:58.677Z,98218.23
2019-01-12T08:53:26.153Z,98214.69
2019-01-12T08:55:53.611Z,98207.70
2019-01-12T08:58:21.019Z,98207.22
2019-01-12T09:00:48.438Z,98201.83
2019-01-12T09:03:15.884Z,98201.96
2019-01-12T09:05:43.315Z,98203.01
2019-01-12T09:08:10.714Z,98207.64
2019-01-12T09:10:38.169Z,98209.70
2019-01-12T09:13:05.593Z,98212.56
2019-01-12T09:15:33.076Z,98208.81
2019-01-12T09:18:00.572Z,98212.68
2019-01-12T09:20:27.973Z,98214.78
2019-01-12T09:22:55.367Z,98211.08
2019-01-12T09:25:22.804Z,98212.46
2019-01-12T09:27:50.218Z,98208.45
2019-01-12T09:30:17.630Z,98211.11
2019-01-12T09:32:45.055Z,98209.34
2019-01-12T09:35:12.452Z,98216.59
2019-01-12T09:37:39.898Z,98220.86
2019-01-12T09:40:07.298Z,98223.50
2019-01-12T09:42:34.721Z,98223.41
2019-01-12T09:45:02.153Z,98224.47
2019-01-12T09:47:29.563Z,98226.03
2019-01-12T09:49:57.010Z,98230.63
2019-01-12T09:52:24.428Z,98225.73
2019-01-12T09:54:51.820Z,98228.29
2019-01-12T09:57:19.278Z,98220.00
2019-01-12T09:59:46.701Z,98219.56
2019-01-12T10:02:14.134Z,98216.27
2019-01-12T10:04:41.610Z,98220.14
2019-01-12T10:07:09.015Z,98214.21
2019-01-12T10:09:36.451Z,98206.05
2019-01-12T10:12:03.894Z,98213.91
2019-01-12T10:14:31.313Z,98209.72
2019-01-12T10:16:58.712Z,98207.88
2019-01-12T10:19:25.660Z,98213.85
2019-01-12T10:21:53.068Z,98209.95
2019-01-12T10:24:20.498Z,98204.36
2019-01-12T10:26:48.298Z,98205.48
2019-01-12T10:29:15.743Z,98205.78
2019-01-12T10:31:43.193Z,98196.62
2019-01-12T10:34:10.681Z,98193.22
2019-01-12T10:36:38.100Z,98194.23
2019-01-12T10:39:05.628Z,98197.78
2019-01-12T10:41:33.052Z,98193.38
2019-01-12T10:44:00.450Z,98186.59
2019-01-12T10:46:27.890Z,98186.86
2019-01-12T10:48:55.374Z,98184.27
2019-01-12T10:51:22.767Z,98187.69
2019-01-12T10:53:50.197Z,98179.86
2019-01-12T10:56:17.627Z,98180.45
2019-01-12T10:58:45.067Z,98168.05
2019-01-12T11:01:12.524Z,98164.20
2019-01-12T11:03:39.934Z,98167.05
2019-01-12T11:06:06.922Z,98165.74
2019-01-12T11:08:34.357Z,98165.05
2019-01-12T11:11:01.750Z,98157.05
2019-01-12T11:13:29.194Z,98151.63
2019-01-12T11:15:56.726Z,98155.34
2019-01-12T11:18:24.127Z,98154.06
2019-01-12T11:20:51.786Z,98160.69
2019-01-12T11:23:19.207Z,98166.17
2019-01-12T11:25:46.679Z,98162.27
2019-01-12T11:28:14.091Z,98162.13
2019-01-12T11:30:41.491Z,98149.46
2019-01-12T11:33:08.939Z,98144.13
2019-01-12T11:35:37.875Z,98143.38
2019-01-12T11:38:03.873Z,98137.02
2019-01-12T11:40:31.287Z,98138.40
2019-01-12T11:42:59.374Z,98139.11
2019-01-12T11:45:26.815Z,98139.66
2019-01-12T11:47:54.219Z,98135.02
2019-01-12T11:50:22.239Z,98142.13
2019-01-12T11:52:49.639Z,98137.75
2019-01-12T11:55:17.070Z,98136.25
2019-01-12T11:57:44.840Z,98148.89
2019-01-12T12:00:22.438Z,98140.80
2019-01-12T12:02:50.301Z,98138.27
2019-01-12T12:05:18.058Z,98134.85
2019-01-12T12:07:45.520Z,98129.99
2019-01-12T12:10:12.926Z,98126.41
2019-01-12T12:12:40.344Z,98121.40
2019-01-12T12:15:08.843Z,98122.24
2019-01-12T12:17:36.236Z,98120.45
2019-01-12T12:20:03.662Z,98125.77
2019-01-12T12:22:31.385Z,98123.02
2019-01-12T12:24:59.526Z,98113.48
2019-01-12T12:27:27.687Z,98109.97
2019-01-12T12:29:55.185Z,98111.30
2019-01-12T12:32:22.649Z,98100.81
2019-01-12T12:34:50.046Z,98086.31
2019-01-12T12:37:18.281Z,98071.60
2019-01-12T12:39:46.627Z,98067.95
2019-01-12T12:42:14.139Z,98061.89
2019-01-12T12:44:41.568Z,98051.52
2019-01-12T12:47:09.966Z,98048.39
2019-01-12T12:49:37.385Z,98033.50
2019-01-12T12:52:04.860Z,98023.76
2019-01-12T12:54:32.314Z,98021.96
2019-01-12T12:56:59.728Z,98025.88
2019-01-12T12:59:27.153Z,98027.06
2019-01-12T13:01:54.650Z,98016.42
2019-01-12T13:04:22.059Z,98000.73
2019-01-12T13:06:49.506Z,97994.08
2019-01-12T13:09:17.044Z,97986.36
2019-01-12T13:11:44.601Z,97989.55
2019-01-12T13:14:12.096Z,97993.19
2019-01-12T13:16:39.579Z,97992.96
2019-01-12T13:19:07.027Z,97996.77
2019-01-12T13:21:34.551Z,97999.25
2019-01-12T13:24:02.053Z,97999.30
2019-01-12T13:26:29.445Z,97996.77
2019-01-12T13:28:56.397Z,98007.62
2019-01-12T13:31:23.855Z,98005.94
2019-01-12T13:33:51.528Z,98007.64
2019-01-12T13:36:19.729Z,98002.58
2019-01-12T13:38:47.144Z,98009.56
2019-01-12T13:41:14.556Z,98006.72
2019-01-12T13:43:41.966Z,98003.58
2019-01-12T13:46:09.384Z,97985.77
2019-01-12T13:48:36.805Z,97977.95
2019-01-12T13:51:04.256Z,97971.63
2019-01-12T13:53:31.690Z,97959.75
2019-01-12T13:55:59.131Z,97965.14
2019-01-12T13:58:26.575Z,97959.45
2019-01-12T14:00:53.992Z,97958.36
2019-01-12T14:03:21.416Z,97959.07
2019-01-12T14:05:48.941Z,97959.23
2019-01-12T14:08:16.388Z,97974.04
2019-01-12T14:10:43.812Z,97971.39
2019-01-12T14:13:11.278Z,97979.33
2019-01-12T14:15:38.709Z,97968.46
2019-01-12T14:18:06.098Z,97965.31
2019-01-12T14:20:33.515Z,97962.62
2019-01-12T14:23:01.000Z,97959.52
2019-01-12T14:25:28.466Z,97971.59
2019-01-12T14:27:56.934Z,97960.94
2019-01-12T14:30:24.364Z,97961.70
2019-01-12T14:32:51.781Z,97975.20
2019-01-12T14:35:19.191Z,97989.13
2019-01-12T14:37:46.809Z,98003.39
2019-01-12T14:40:15.656Z,98014.81
2019-01-12T14:42:43.626Z,98023.77
2019-01-12T14:45:11.729Z,98036.30
2019-01-12T14:47:40.093Z,98037.95
2019-01-12T14:50:07.581Z,98039.48
2019-01-12T14:52:34.996Z,98029.14
2019-01-12T14:55:02.386Z,98036.61
2019-01-12T14:57:29.799Z,98032.05
2019-01-12T14:59:57.260Z,98023.84
2019-01-12T15:02:24.653Z,98036.18
2019-01-12T15:04:52.063Z,98042.58
2019-01-12T15:07:19.471Z,98046.45
2019-01-12T15:09:46.893Z,98050.98
2019-01-12T15:12:14.308Z,98047.30
2019-01-12T15:14:41.733Z,98044.41
2019-01-12T15:17:09.574Z,98052.73
2019-01-12T15:19:36.992Z,98046.98
2019-01-12T15:22:04.405Z,98057.06
2019-01-12T15:24:31.819Z,98057.59
2019-01-12T15:26:59.216Z,98055.55
2019-01-12T15:29:26.652Z,98046.30
2019-01-12T15:31:54.070Z,98043.63
2019-01-12T15:34:22.260Z,98044.83
2019-01-12T15:36:49.843Z,98050.52
2019-01-12T15:39:17.323Z,98050.14
2019-01-12T15:41:44.802Z,98041.59
2019-01-12T15:44:12.719Z,98053.20
2019-01-12T15:46:40.153Z,98051.47
2019-01-12T15:49:07.599Z,98048.38
2019-01-12T15:51:35.055Z,98048.75
2019-01-12T15:54:02.467Z,98043.20
2019-01-12T15:56:29.879Z,98048.41
2019-01-12T15:58:57.279Z,98045.88
2019-01-12T16:01:24.694Z,98045.22
2019-01-12T16:03:52.129Z,98033.55
2019-01-12T16:06:19.521Z,98042.55
2019-01-12T16:08:47.141Z,98049.31
2019-01-12T16:11:14.567Z,98042.39
2019-01-12T16:13:42.073Z,98040.22
2019-01-12T16:16:09.589Z,98047.05
2019-01-12T16:18:37.368Z,98049.41
2019-01-12T16:21:04.781Z,98047.91
2019-01-12T16:23:32.180Z,98045.77
2019-01-12T16:25:59.601Z,98047.27
2019-01-12T16:28:27.011Z,98042.33
2019-01-12T16:30:54.423Z,98042.06
2019-01-12T16:33:21.826Z,98029.06
2019-01-12T16:35:49.222Z,98030.95
2019-01-12T16:38:16.636Z,98037.38
2019-01-12T16:40:44.518Z,98032.41
2019-01-12T16:43:13.038Z,98035.20
2019-01-12T16:45:40.496Z,98050.80
2019-01-12T16:48:08.480Z,98050.83
2019-01-12T16:50:35.878Z,98046.66
2019-01-12T16:53:03.302Z,98050.80
2019-01-12T16:55:30.708Z,98052.36
2019-01-12T16:57:58.119Z,98040.95
2019-01-12T17:00:25.541Z,98044.92
2019-01-12T17:02:53.069Z,98039.50
2019-01-12T17:05:20.541Z,98033.03
2019-01-12T17:07:47.941Z,98023.57
2019-01-12T17:10:15.366Z,98021.72
2019-01-12T17:12:42.770Z,98024.64
2019-01-12T17:15:10.201Z,98019.37
2019-01-12T17:17:37.688Z,98015.63
2019-01-12T17:20:05.210Z,98025.97
2019-01-12T17:22:32.618Z,98026.36
2019-01-12T17:25:00.109Z,98024.86
2019-01-12T17:27:27.604Z,98020.99
2019-01-12T17:29:54.989Z,98011.95
2019-01-12T17:32:22.598Z,98011.92
2019-01-12T17:34:49.992Z,98009.00
2019-01-12T17:37:18.969Z,98006.59
2019-01-12T17:39:45.004Z,98006.92
2019-01-12T17:42:12.463Z,98005.55
2019-01-12T17:44:39.871Z,98011.18
2019-01-12T17:47:08.138Z,98010.66
2019-01-12T17:49:35.646Z,98018.42
2019-01-12T17:52:03.274Z,98005.94
2019-01-12T17:54:30.917Z,98002.92
2019-01-12T17:56:58.442Z,98000.25
2019-01-12T17:59:25.869Z,98006.55
2019-01-12T18:01:53.301Z,98002.52
2019-01-12T18:04:20.766Z,98005.05
2019-01-12T18:06:48.193Z,98004.66
2019-01-12T18:09:15.583Z,97989.61
2019-01-12T18:11:42.973Z,97974.00
2019-01-12T18:14:10.373Z,97971.81
2019-01-12T18:16:37.797Z,97973.05
2019-01-12T18:19:05.234Z,97983.06
2019-01-12T18:21:32.712Z,97992.03
2019-01-12T18:24:00.214Z,97988.59
2019-01-12T18:26:27.644Z,97994.85
2019-01-12T18:28:55.105Z,97993.12
2019-01-12T18:31:22.543Z,97988.55
2019-01-12T18:33:49.938Z,97969.28
2019-01-12T18:36:18.249Z,97972.20
2019-01-12T18:38:45.812Z,97966.37
2019-01-12T18:41:13.320Z,97970.20
2019-01-12T18:43:40.704Z,97977.38
2019-01-12T18:46:12.089Z,97980.96
2019-01-12T18:48:35.637Z,97977.52
2019-01-12T18:51:03.092Z,97968.65
2019-01-12T18:53:30.606Z,97971.64
2019-01-12T18:55:58.058Z,97963.06
2019-01-12T18:58:25.443Z,97962.25
2019-01-12T19:00:52.879Z,97945.27
2019-01-12T19:03:20.319Z,97946.72
2019-01-12T19:05:47.739Z,97957.16
2019-01-12T19:08:15.155Z,97956.52
2019-01-12T19:10:42.607Z,97957.54
2019-01-12T19:13:10.065Z,97960.34
2019-01-12T19:15:37.692Z,97954.30
2019-01-12T19:18:05.320Z,97952.22
2019-01-12T19:20:33.016Z,97956.09
2019-01-12T19:23:00.568Z,97951.41
2019-01-12T19:25:27.967Z,97949.30
2019-01-12T19:27:55.389Z,97942.97
2019-01-12T19:30:22.820Z,97939.91
2019-01-12T19:32:50.267Z,97945.11
2019-01-12T19:35:18.128Z,97943.52
2019-01-12T19:37:45.632Z,97938.81
2019-01-12T19:40:15.387Z,97919.16
2019-01-12T19:42:42.799Z,97921.83
2019-01-12T19:45:10.264Z,97924.07
2019-01-12T19:47:38.176Z,97915.81
2019-01-12T19:50:05.607Z,97912.14
2019-01-12T19:52:33.004Z,97917.66
2019-01-12T19:55:00.454Z,97909.76
2019-01-12T19:57:28.003Z,97907.58
2019-01-12T19:59:55.446Z,97905.08
2019-01-12T20:02:23.018Z,97896.09
2019-01-12T20:04:51.229Z,97899.80
2019-01-12T20:07:18.760Z,97893.73
2019-01-12T20:09:46.285Z,97895.09
2019-01-12T20:12:13.873Z,97890.63
2019-01-12T20:14:41.266Z,97898.50
2019-01-12T20:17:08.680Z,97895.41
2019-01-12T20:19:36.154Z,97908.20
2019-01-12T20:22:03.584Z,97908.98
2019-01-12T20:24:31.038Z,97917.92
2019-01-12T20:26:58.430Z,97914.91
2019-01-12T20:29:25.860Z,97915.09
2019-01-12T20:32:16.775Z,97920.19
2019-01-12T20:34:44.220Z,97908.49
2019-01-12T20:40:15.016Z,97893.28
2019-01-12T20:45:39.791Z,97885.65
2019-01-12T20:48:19.688Z,97882.45
2019-01-12T20:53:46.882Z,97883.39
2019-01-12T20:56:20.184Z,97868.39
2019-01-12T20:58:50.797Z,97864.96
2019-01-12T21:01:30.211Z,97865.59
2019-01-12T21:06:58.569Z,97852.71
2019-01-12T21:09:30.295Z,97861.76
2019-01-12T21:12:17.878Z,97858.57
2019-01-12T21:14:45.508Z,97850.56
2019-01-12T21:17:12.953Z,97858.85
2019-01-12T21:19:47.753Z,97861.10
2019-01-12T21:22:08.214Z,97867.39
2019-01-12T21:24:35.718Z,97875.61
2019-01-12T21:27:03.143Z,97875.75
2019-01-12T21:29:35.119Z,97867.07
2019-01-12T21:31:57.996Z,97854.00
2019-01-12T21:34:25.413Z,97847.22
2019-01-12T21:36:52.830Z,97853.66
2019-01-12T21:39:20.255Z,97851.86
2019-01-12T21:41:48.625Z,97848.73
2019-01-12T21:44:16.113Z,97835.27
2019-01-12T21:46:43.563Z,97843.77
2019-01-12T21:49:11.042Z,97839.73
2019-01-12T21:51:38.478Z,97840.07
2019-01-12T21:54:05.889Z,97837.13
2019-01-12T21:56:33.357Z,97833.72
2019-01-12T21:59:00.771Z,97834.95
2019-01-12T22:01:28.300Z,97833.22
2019-01-12T22:03:55.713Z,97832.00
2019-01-12T22:06:23.200Z,97830.23
2019-01-12T22:08:50.628Z,97830.03
2019-01-12T22:11:18.063Z,97829.80
2019-01-12T22:13:45.513Z,97823.09
2019-01-12T22:16:13.585Z,97827.83
2019-01-12T22:18:41.012Z,97823.92
2019-01-12T22:21:08.395Z,97821.02
2019-01-12T22:23:35.799Z,97830.33
2019-01-12T22:26:03.271Z,97829.13
2019-01-12T22:28:30.726Z,97834.33
2019-01-12T22:30:58.195Z,97831.91
2019-01-12T22:33:25.620Z,97833.17
2019-01-12T22:35:53.033Z,97835.52
2019-01-12T22:38:20.431Z,97835.34
2019-01-12T22:40:47.847Z,97839.25
2019-01-12T22:43:15.246Z,97835.70
2019-01-12T22:45:42.692Z,97838.79
2019-01-12T22:48:10.137Z,97837.38
2019-01-12T22:50:37.535Z,97829.83
2019-01-12T22:53:05.130Z,97827.23
2019-01-12T22:55:32.592Z,97825.66
2019-01-12T22:57:59.984Z,97819.64
2019-01-12T23:00:42.285Z,97826.63
2019-01-12T23:03:09.736Z,97819.82
2019-01-12T23:05:37.147Z,97811.78
2019-01-12T23:08:04.606Z,97807.95
2019-01-12T23:10:32.033Z,97818.45
2019-01-12T23:12:59.468Z,97803.84
2019-01-12T23:15:26.926Z,97810.83
2019-01-12T23:17:54.384Z,97811.19
2019-01-12T23:20:21.767Z,97807.39
2019-01-12T23:22:49.186Z,97795.00
2019-01-12T23:25:16.603Z,97793.41
2019-01-12T23:27:43.995Z,97800.93
2019-01-12T23:30:13.176Z,97795.97
2019-01-12T23:32:40.663Z,97796.53
2019-01-12T23:35:08.117Z,97789.62
2019-01-12T23:37:35.547Z,97788.91
2019-01-12T23:40:03.007Z,97789.83
2019-01-12T23:42:30.484Z,97786.55
2019-01-12T23:44:57.927Z,97782.52
2019-01-12T23:47:25.335Z,97779.50
2019-01-12T23:49:52.745Z,97782.17
2019-01-12T23:52:20.179Z,97771.11
2019-01-12T23:54:47.570Z,97773.34
2019-01-12T23:57:15.065Z,97769.45
2019-01-12T23:59:42.474Z,97765.63
